Terminal Aerodrome Forecast
Issued by NWS Portland, OR

Home | Current Version | Previous Version | Text Only | Print | Product List | Glossary On
Versions: 1 2 3 4 5 6 7 8 9 10 11 12 13 14 15 16 17 18 19 20 21 22 23 24 25 26 27 28 29 30 31 32 33 34 35 36 37 38 39 40 41 42
000
FTUS46 KPQR 060820 AAA
TAFEUG
TAF AMD
KEUG 060820Z 0608/0706 18005KT P6SM -SHRA OVC025
     FM061000 VRB03KT 5SM -SHRASN BR OVC007
     FM061300 VRB03KT 5SM BR VCSH OVC007
     FM061700 36005KT 6SM BR OVC012
     FM062000 36005KT P6SM SCT045=

USA.gov is the U.S. government's official web portal to all federal, state and local government web resources and services.